Time;durP1;ratioP1;P1;durP2;ratioP2;P2;SDS_P1;SDS_P2;PMS_P1;PMS_P2;Temp;Humidity;BMP_temperature;BMP_pressure;BME280_temperature;BME280_humidity;BME280_pressure;Samples;Min_cycle;Max_cycle;Signal;HPM_P1;HPM_P2
2022/06/11 00:00:51;;;;;;;20.25;10.98;;;;;;;;;;6223465;23;20419;-79
2022/06/11 00:03:17;;;;;;;18.95;12.98;;;;;;;;;;6218967;23;20005;-78
2022/06/11 00:05:42;;;;;;;24.42;15.98;;;;;;;;;;6220956;23;20019;-78
2022/06/11 00:08:08;;;;;;;25.38;15.55;;;;;;;;;;6258165;22;20008;-79
2022/06/11 00:10:33;;;;;;;18.25;14.90;;;;;;;;;;6219548;23;20000;-79
2022/06/11 00:12:59;;;;;;;21.25;14.05;;;;;;;;;;6219187;23;20080;-78
2022/06/11 00:15:24;;;;;;;24.25;13.02;;;;;;;;;;6245657;23;20008;-80
2022/06/11 00:17:52;;;;;;;20.67;13.35;;;;;;;;;;6243950;23;20004;-79
2022/06/11 00:20:18;;;;;;;17.38;13.68;;;;;;;;;;6218682;23;20070;-80
2022/06/11 00:22:43;;;;;;;21.45;13.80;;;;;;;;;;6246231;23;20000;-78
2022/06/11 00:25:09;;;;;;;20.77;14.30;;;;;;;;;;6245625;23;20005;-80
2022/06/11 00:27:34;;;;;;;19.90;13.50;;;;;;;;;;6252461;23;20000;-79
2022/06/11 00:30:00;;;;;;;20.23;13.57;;;;;;;;;;6252526;23;20012;-80
2022/06/11 00:32:25;;;;;;;24.10;13.60;;;;;;;;;;6245586;23;20004;-78
2022/06/11 00:34:53;;;;;;;18.80;12.60;;;;;;;;;;6245853;23;20008;-79
2022/06/11 00:37:20;;;;;;;21.17;12.82;;;;;;;;;;6245495;23;20004;-80
2022/06/11 00:39:45;;;;;;;15.55;12.25;;;;;;;;;;6245537;23;20142;-79
2022/06/11 00:42:16;;;;;;;15.05;11.90;;;;;;;;;;6245050;23;20008;-80
2022/06/11 00:44:42;;;;;;;19.50;11.18;;;;;;;;;;6194081;23;20007;-79
2022/06/11 00:47:34;;;;;;;17.83;10.15;;;;;;;;;;6245533;23;20071;-80
2022/06/11 00:49:59;;;;;;;13.25;9.77;;;;;;;;;;6250718;23;20118;-79
2022/06/11 00:52:32;;;;;;;15.70;9.20;;;;;;;;;;6246677;23;20415;-80
2022/06/11 00:55:14;;;;;;;13.00;9.10;;;;;;;;;;6219006;23;20008;-79
2022/06/11 00:57:46;;;;;;;10.05;8.15;;;;;;;;;;6218474;23;20473;-81
2022/06/11 01:00:23;;;;;;;11.20;8.70;;;;;;;;;;6245333;23;20012;-80
2022/06/11 01:02:48;;;;;;;11.02;8.35;;;;;;;;;;6245510;23;20011;-79
2022/06/11 01:05:23;;;;;;;12.10;9.00;;;;;;;;;;6245533;23;20083;-80
2022/06/11 01:08:04;;;;;;;12.32;8.48;;;;;;;;;;6245126;23;20000;-80
2022/06/11 01:10:45;;;;;;;12.38;8.07;;;;;;;;;;6232056;23;20004;-79
2022/06/11 01:13:33;;;;;;;11.52;8.02;;;;;;;;;;6221794;23;20000;-80
2022/06/11 01:16:04;;;;;;;11.02;8.38;;;;;;;;;;6244649;23;20405;-79
2022/06/11 01:18:45;;;;;;;11.85;10.13;;;;;;;;;;6219179;23;20007;-79
2022/06/11 01:21:10;;;;;;;16.52;12.07;;;;;;;;;;6245224;23;20009;-80
2022/06/11 01:23:42;;;;;;;14.15;10.15;;;;;;;;;;6245193;23;20030;-80
2022/06/11 01:26:10;;;;;;;11.35;8.10;;;;;;;;;;6218998;23;20004;-80
2022/06/11 01:28:55;;;;;;;10.13;7.30;;;;;;;;;;6245650;23;20039;-80
2022/06/11 01:31:25;;;;;;;13.10;7.50;;;;;;;;;;6226224;23;20085;-80
2022/06/11 01:34:08;;;;;;;9.03;7.40;;;;;;;;;;6193550;23;20458;-80
2022/06/11 01:36:39;;;;;;;10.60;7.22;;;;;;;;;;6218402;23;20004;-79
2022/06/11 01:39:32;;;;;;;9.98;7.32;;;;;;;;;;6193906;23;20024;-80
2022/06/11 01:42:06;;;;;;;15.25;6.80;;;;;;;;;;6212007;23;20004;-80
2022/06/11 01:44:35;;;;;;;12.30;6.75;;;;;;;;;;6245203;23;20049;-81
2022/06/11 01:47:01;;;;;;;14.82;6.95;;;;;;;;;;6218196;23;20075;-79
2022/06/11 01:49:27;;;;;;;14.60;5.72;;;;;;;;;;6248602;23;20493;-78
2022/06/11 01:52:18;;;;;;;9.80;6.45;;;;;;;;;;6254058;23;20000;-79
2022/06/11 01:54:43;;;;;;;7.00;6.00;;;;;;;;;;6196304;23;20078;-80
2022/06/11 01:57:21;;;;;;;8.73;5.75;;;;;;;;;;6244653;23;20000;-80
2022/06/11 02:00:02;;;;;;;9.25;5.88;;;;;;;;;;6244425;23;20088;-80
2022/06/11 02:02:55;;;;;;;11.40;6.70;;;;;;;;;;6244807;23;20386;-79
2022/06/11 02:05:45;;;;;;;9.52;7.35;;;;;;;;;;6218492;23;20054;-79
2022/06/11 02:08:19;;;;;;;12.65;8.07;;;;;;;;;;6218240;23;20000;-79
2022/06/11 02:11:07;;;;;;;14.70;9.13;;;;;;;;;;6228148;23;20023;-79
2022/06/11 02:13:43;;;;;;;13.20;9.70;;;;;;;;;;6223644;23;20012;-79
2022/06/11 02:16:27;;;;;;;16.33;10.38;;;;;;;;;;6193786;23;20438;-80
2022/06/11 02:18:53;;;;;;;15.23;10.95;;;;;;;;;;6195574;23;20040;-79
2022/06/11 02:21:30;;;;;;;21.52;12.18;;;;;;;;;;6192925;23;20000;-80
2022/06/11 02:24:03;;;;;;;21.88;14.13;;;;;;;;;;6245184;23;20410;-79
2022/06/11 02:26:35;;;;;;;29.73;15.65;;;;;;;;;;6197696;23;20079;-80
2022/06/11 02:29:00;;;;;;;19.70;13.95;;;;;;;;;;6221008;23;20004;-78
2022/06/11 02:31:29;;;;;;;25.75;11.82;;;;;;;;;;6252751;23;20011;-79
2022/06/11 02:33:54;;;;;;;14.57;8.90;;;;;;;;;;6221790;23;20061;-79
2022/06/11 02:36:23;;;;;;;15.88;7.70;;;;;;;;;;6244458;23;20000;-80
2022/06/11 02:38:48;;;;;;;8.90;6.22;;;;;;;;;;6218175;23;20080;-80
2022/06/11 02:41:18;;;;;;;8.65;6.30;;;;;;;;;;6245090;23;20004;-80
2022/06/11 02:43:43;;;;;;;11.63;6.28;;;;;;;;;;6217597;23;20000;-79
2022/06/11 02:48:53;;;;;;;14.20;5.60;;;;;;;;;;6244414;23;20046;-79
2022/06/11 02:51:20;;;;;;;13.38;6.30;;;;;;;;;;6245239;23;20000;-79
2022/06/11 02:53:45;;;;;;;8.77;6.10;;;;;;;;;;6251058;23;20025;-80
2022/06/11 02:56:11;;;;;;;8.57;6.07;;;;;;;;;;6244545;23;20426;-79
2022/06/11 02:58:36;;;;;;;8.85;6.05;;;;;;;;;;6192887;23;20014;-79
2022/06/11 03:01:02;;;;;;;10.13;6.35;;;;;;;;;;6217554;23;20390;-79
2022/06/11 03:03:27;;;;;;;7.68;5.75;;;;;;;;;;6244195;23;20008;-80
2022/06/11 03:05:53;;;;;;;7.43;6.18;;;;;;;;;;6243705;23;20000;-79
2022/06/11 03:08:19;;;;;;;8.25;5.97;;;;;;;;;;6245208;23;20324;-80
2022/06/11 03:10:44;;;;;;;7.97;6.00;;;;;;;;;;6244632;23;20004;-80
2022/06/11 03:13:10;;;;;;;15.43;6.63;;;;;;;;;;6249745;23;20004;-79
2022/06/11 03:15:36;;;;;;;7.22;5.97;;;;;;;;;;6225895;23;20012;-79
2022/06/11 03:18:01;;;;;;;11.57;6.70;;;;;;;;;;6244502;23;20031;-79
2022/06/11 03:20:28;;;;;;;11.73;6.22;;;;;;;;;;6244134;23;20004;-79
2022/06/11 03:22:54;;;;;;;9.98;6.07;;;;;;;;;;6217664;23;20964;-79
2022/06/11 03:25:20;;;;;;;8.35;6.70;;;;;;;;;;6244236;23;20030;-80
2022/06/11 03:27:45;;;;;;;9.73;6.43;;;;;;;;;;6244267;23;20035;-81
2022/06/11 03:30:11;;;;;;;12.43;6.43;;;;;;;;;;6244785;23;20428;-80
2022/06/11 03:32:37;;;;;;;7.78;5.93;;;;;;;;;;6218742;23;20004;-80
2022/06/11 03:35:03;;;;;;;10.02;6.63;;;;;;;;;;6227140;23;20004;-79
2022/06/11 03:37:28;;;;;;;11.25;5.93;;;;;;;;;;6245383;23;20015;-79
2022/06/11 03:39:54;;;;;;;7.75;6.57;;;;;;;;;;6243702;23;20012;-80
2022/06/11 03:42:19;;;;;;;8.38;6.43;;;;;;;;;;6244862;23;20004;-79
2022/06/11 03:44:44;;;;;;;12.32;6.90;;;;;;;;;;6244401;23;19996;-81
2022/06/11 03:47:11;;;;;;;10.45;7.05;;;;;;;;;;6192563;23;20000;-80
2022/06/11 03:49:36;;;;;;;8.23;6.50;;;;;;;;;;6217268;23;20050;-79
2022/06/11 03:52:03;;;;;;;14.82;6.45;;;;;;;;;;6244357;23;20000;-79
2022/06/11 03:54:28;;;;;;;12.23;7.00;;;;;;;;;;6257798;23;20378;-80
2022/06/11 03:56:54;;;;;;;10.95;6.22;;;;;;;;;;6217559;23;20083;-80
2022/06/11 03:59:20;;;;;;;9.73;6.20;;;;;;;;;;6244006;23;20342;-80
2022/06/11 04:01:47;;;;;;;16.40;6.28;;;;;;;;;;6218022;23;20004;-80
2022/06/11 04:04:13;;;;;;;10.13;6.22;;;;;;;;;;6244038;23;20412;-78
2022/06/11 04:06:46;;;;;;;10.77;6.80;;;;;;;;;;6244394;23;20007;-78
2022/06/11 04:09:23;;;;;;;12.82;6.78;;;;;;;;;;6244044;23;20031;-78
2022/06/11 04:11:49;;;;;;;8.38;6.85;;;;;;;;;;6218200;23;20005;-78
2022/06/11 04:14:15;;;;;;;13.80;7.38;;;;;;;;;;6249403;23;20027;-79
2022/06/11 04:16:43;;;;;;;11.52;6.50;;;;;;;;;;6248462;23;20008;-78
2022/06/11 04:19:13;;;;;;;7.50;6.50;;;;;;;;;;6245672;23;20008;-79
2022/06/11 04:21:38;;;;;;;14.57;6.85;;;;;;;;;;6219135;23;20008;-78
2022/06/11 04:24:04;;;;;;;9.90;6.53;;;;;;;;;;6218679;23;19996;-78
2022/06/11 04:26:33;;;;;;;11.32;6.20;;;;;;;;;;6245673;23;20427;-79
2022/06/11 04:28:59;;;;;;;8.65;6.50;;;;;;;;;;6219010;23;20032;-79
2022/06/11 04:31:25;;;;;;;8.48;6.53;;;;;;;;;;6245993;23;20073;-79
2022/06/11 04:33:50;;;;;;;10.10;7.13;;;;;;;;;;6249325;23;20075;-78
2022/06/11 04:36:17;;;;;;;10.77;6.82;;;;;;;;;;6263224;23;20004;-78
2022/06/11 04:38:42;;;;;;;12.48;7.53;;;;;;;;;;6194756;23;20031;-79
2022/06/11 04:41:08;;;;;;;12.25;7.68;;;;;;;;;;6219093;23;20000;-77
2022/06/11 04:43:34;;;;;;;17.55;7.78;;;;;;;;;;6218813;23;20011;-78
2022/06/11 04:45:59;;;;;;;16.92;7.85;;;;;;;;;;6245683;23;20007;-78
2022/06/11 04:48:25;;;;;;;15.70;8.65;;;;;;;;;;6243692;23;20008;-78
2022/06/11 04:50:51;;;;;;;13.13;9.05;;;;;;;;;;6245679;23;20000;-79
2022/06/11 04:53:16;;;;;;;16.23;8.52;;;;;;;;;;6245470;23;20004;-78
2022/06/11 04:55:42;;;;;;;17.65;9.77;;;;;;;;;;6258684;23;20008;-78
2022/06/11 04:58:07;;;;;;;16.13;8.48;;;;;;;;;;6245339;23;20431;-78
2022/06/11 05:00:33;;;;;;;16.83;7.63;;;;;;;;;;6245505;23;20463;-78
2022/06/11 05:02:58;;;;;;;11.15;7.63;;;;;;;;;;6245554;23;20024;-78
2022/06/11 05:05:24;;;;;;;12.55;7.75;;;;;;;;;;6248544;22;20000;-78
2022/06/11 05:07:50;;;;;;;11.63;7.60;;;;;;;;;;6250915;22;20379;-78
2022/06/11 05:10:17;;;;;;;11.10;7.07;;;;;;;;;;6218901;23;20004;-78
2022/06/11 05:12:43;;;;;;;11.05;6.97;;;;;;;;;;6245332;23;20004;-78
2022/06/11 05:15:09;;;;;;;19.35;7.72;;;;;;;;;;6250821;23;20024;-78
2022/06/11 05:17:36;;;;;;;16.67;6.50;;;;;;;;;;6253209;22;20024;-78
2022/06/11 05:20:01;;;;;;;8.52;6.93;;;;;;;;;;6245059;23;20012;-78
2022/06/11 05:22:27;;;;;;;10.00;6.72;;;;;;;;;;6218294;23;20068;-77
2022/06/11 05:24:52;;;;;;;10.55;6.50;;;;;;;;;;6218790;23;19996;-79
2022/06/11 05:27:21;;;;;;;8.77;6.82;;;;;;;;;;6245287;23;20012;-78
2022/06/11 05:29:49;;;;;;;8.75;6.88;;;;;;;;;;6218487;23;20058;-78
2022/06/11 05:32:17;;;;;;;17.67;7.28;;;;;;;;;;6218316;23;20065;-78
2022/06/11 05:34:43;;;;;;;11.80;7.35;;;;;;;;;;6245368;23;20028;-78
2022/06/11 05:37:09;;;;;;;10.73;6.72;;;;;;;;;;6231991;23;20074;-78
2022/06/11 05:39:34;;;;;;;10.77;7.32;;;;;;;;;;6245154;23;20004;-78
2022/06/11 05:42:00;;;;;;;9.98;6.75;;;;;;;;;;6245222;23;20004;-77
2022/06/11 05:44:25;;;;;;;9.48;6.80;;;;;;;;;;6245063;23;20004;-77
2022/06/11 05:46:51;;;;;;;10.35;6.40;;;;;;;;;;6244794;23;20004;-77
2022/06/11 05:49:19;;;;;;;13.52;6.90;;;;;;;;;;6218260;23;20505;-78
2022/06/11 05:51:46;;;;;;;11.98;6.72;;;;;;;;;;6218931;23;20004;-77
2022/06/11 05:54:18;;;;;;;10.43;7.03;;;;;;;;;;6218473;23;20004;-78
2022/06/11 05:56:44;;;;;;;12.23;7.45;;;;;;;;;;6228227;23;20007;-77
2022/06/11 05:59:12;;;;;;;9.48;7.30;;;;;;;;;;6197870;23;20427;-79
2022/06/11 06:01:39;;;;;;;9.77;6.93;;;;;;;;;;6218296;23;20012;-78
2022/06/11 06:04:05;;;;;;;12.57;6.90;;;;;;;;;;6193042;23;20366;-78
2022/06/11 06:06:30;;;;;;;9.93;7.22;;;;;;;;;;6244430;23;20008;-79
2022/06/11 06:08:56;;;;;;;14.15;8.10;;;;;;;;;;6244945;23;20004;-78
2022/06/11 06:11:21;;;;;;;10.25;7.18;;;;;;;;;;6244661;23;20004;-78
2022/06/11 06:13:47;;;;;;;10.77;7.18;;;;;;;;;;6244479;23;20023;-78
2022/06/11 06:16:23;;;;;;;11.23;8.02;;;;;;;;;;6194969;23;20061;-79
2022/06/11 06:18:49;;;;;;;21.75;7.57;;;;;;;;;;6229393;23;20000;-78
2022/06/11 06:21:16;;;;;;;12.38;6.72;;;;;;;;;;6217408;23;20371;-78
2022/06/11 06:23:41;;;;;;;8.77;7.03;;;;;;;;;;6245049;23;20000;-79
2022/06/11 06:26:07;;;;;;;11.98;6.70;;;;;;;;;;6218317;23;20130;-79
2022/06/11 06:28:35;;;;;;;8.52;6.60;;;;;;;;;;6244760;23;20004;-80
2022/06/11 06:31:01;;;;;;;12.05;6.43;;;;;;;;;;6245413;23;20004;-81
2022/06/11 06:33:27;;;;;;;8.50;5.43;;;;;;;;;;6218301;23;20000;-78
2022/06/11 06:35:52;;;;;;;7.38;5.78;;;;;;;;;;6218268;23;20035;-79
2022/06/11 06:38:18;;;;;;;9.40;5.65;;;;;;;;;;6222119;23;20051;-81
2022/06/11 06:40:43;;;;;;;8.45;5.47;;;;;;;;;;6246963;23;20054;-79
2022/06/11 06:43:09;;;;;;;9.15;5.22;;;;;;;;;;6244420;23;20004;-79
2022/06/11 06:45:34;;;;;;;9.32;6.18;;;;;;;;;;6244439;23;20460;-78
2022/06/11 06:48:02;;;;;;;9.68;5.72;;;;;;;;;;6218342;23;20008;-79
2022/06/11 06:50:28;;;;;;;8.65;5.57;;;;;;;;;;6244013;23;20000;-79
2022/06/11 06:52:53;;;;;;;8.23;5.60;;;;;;;;;;6244854;23;20011;-79
2022/06/11 06:55:19;;;;;;;9.52;5.70;;;;;;;;;;6218155;23;20339;-81
2022/06/11 06:57:44;;;;;;;7.47;5.60;;;;;;;;;;6249733;23;20082;-79
2022/06/11 07:00:11;;;;;;;7.90;5.60;;;;;;;;;;6258989;23;20024;-80
2022/06/11 07:02:37;;;;;;;11.25;5.60;;;;;;;;;;6216963;23;20008;-80
2022/06/11 07:05:03;;;;;;;6.78;5.50;;;;;;;;;;6218623;23;20046;-80
2022/06/11 07:07:29;;;;;;;7.95;5.88;;;;;;;;;;6218111;23;20004;-80
2022/06/11 07:09:55;;;;;;;9.88;6.38;;;;;;;;;;6217926;23;20449;-79
2022/06/11 07:12:21;;;;;;;8.85;6.00;;;;;;;;;;6217778;23;20020;-81
2022/06/11 07:14:47;;;;;;;9.70;5.75;;;;;;;;;;6217726;23;20424;-79
2022/06/11 07:17:14;;;;;;;8.05;5.43;;;;;;;;;;6244451;23;20011;-80
2022/06/11 07:19:47;;;;;;;7.50;5.25;;;;;;;;;;6204520;23;20004;-79
2022/06/11 07:22:22;;;;;;;8.80;5.78;;;;;;;;;;6220554;23;20000;-79
2022/06/11 07:24:48;;;;;;;10.25;5.65;;;;;;;;;;6218442;23;20012;-80
2022/06/11 07:27:16;;;;;;;8.13;6.00;;;;;;;;;;6217752;23;20028;-79
2022/06/11 07:29:43;;;;;;;8.20;5.50;;;;;;;;;;6192614;23;20039;-80
2022/06/11 07:32:13;;;;;;;8.55;5.55;;;;;;;;;;6217664;23;20000;-80
2022/06/11 07:34:39;;;;;;;10.45;5.65;;;;;;;;;;6193391;23;20004;-80
2022/06/11 07:37:04;;;;;;;7.28;5.72;;;;;;;;;;6218048;23;20426;-79
2022/06/11 07:39:30;;;;;;;14.48;5.53;;;;;;;;;;6227094;23;20020;-80
2022/06/11 07:41:55;;;;;;;6.55;5.20;;;;;;;;;;6245950;23;20000;-80
2022/06/11 07:44:21;;;;;;;7.05;5.50;;;;;;;;;;6244616;23;20000;-81
2022/06/11 07:46:46;;;;;;;9.07;5.60;;;;;;;;;;6244124;23;20004;-80
2022/06/11 07:49:12;;;;;;;8.00;6.10;;;;;;;;;;6244476;23;20083;-80
2022/06/11 07:51:37;;;;;;;11.40;5.72;;;;;;;;;;6218100;23;20008;-80
2022/06/11 07:54:03;;;;;;;10.02;6.35;;;;;;;;;;6219658;23;20090;-79
2022/06/11 07:56:28;;;;;;;9.05;5.63;;;;;;;;;;6246484;23;20000;-80
2022/06/11 07:58:54;;;;;;;7.10;5.30;;;;;;;;;;6250381;23;20000;-79
2022/06/11 08:01:20;;;;;;;8.68;5.60;;;;;;;;;;6254087;23;20051;-80
2022/06/11 08:03:45;;;;;;;12.95;6.25;;;;;;;;;;6246955;23;20004;-79
2022/06/11 08:06:11;;;;;;;12.63;5.78;;;;;;;;;;6219356;23;20000;-80
2022/06/11 08:08:36;;;;;;;12.50;5.97;;;;;;;;;;6246325;23;20027;-79
2022/06/11 08:11:02;;;;;;;9.38;6.35;;;;;;;;;;6219147;23;20083;-79
2022/06/11 08:13:28;;;;;;;9.35;6.10;;;;;;;;;;6219613;23;20075;-79
2022/06/11 08:15:54;;;;;;;9.55;5.88;;;;;;;;;;6245611;23;20008;-80
2022/06/11 08:18:20;;;;;;;9.43;6.10;;;;;;;;;;6245988;23;20122;-79
2022/06/11 08:20:46;;;;;;;10.65;6.30;;;;;;;;;;6256570;22;20000;-79
2022/06/11 08:23:12;;;;;;;10.10;6.68;;;;;;;;;;6219721;23;20080;-80
2022/06/11 08:25:37;;;;;;;8.88;5.80;;;;;;;;;;6246428;23;20004;-80
2022/06/11 08:28:03;;;;;;;8.35;6.38;;;;;;;;;;6246155;23;20335;-79
2022/06/11 08:30:30;;;;;;;7.38;5.93;;;;;;;;;;6193764;23;20008;-79
2022/06/11 08:32:56;;;;;;;9.60;6.43;;;;;;;;;;6218786;23;20011;-79
2022/06/11 08:35:23;;;;;;;13.90;6.95;;;;;;;;;;6245585;23;20000;-79
2022/06/11 08:37:49;;;;;;;7.05;6.15;;;;;;;;;;6219140;23;20016;-79
2022/06/11 08:40:33;;;;;;;12.52;7.00;;;;;;;;;;6254934;22;19988;-82
2022/06/11 08:43:18;;;;;;;11.50;7.18;;;;;;;;;;6198034;23;20008;-79
2022/06/11 08:45:45;;;;;;;12.60;7.80;;;;;;;;;;6223135;23;19996;-79
2022/06/11 08:48:37;;;;;;;12.00;7.47;;;;;;;;;;6245936;23;20004;-79
2022/06/11 08:51:03;;;;;;;11.73;7.75;;;;;;;;;;6221697;23;19996;-80
2022/06/11 08:53:30;;;;;;;16.58;9.15;;;;;;;;;;6245875;23;20145;-80
2022/06/11 08:55:56;;;;;;;13.10;8.70;;;;;;;;;;6219263;23;20004;-79
2022/06/11 08:58:37;;;;;;;13.05;9.13;;;;;;;;;;6219055;23;20402;-80
2022/06/11 09:01:15;;;;;;;15.95;9.32;;;;;;;;;;6206498;23;20104;-79
2022/06/11 09:04:17;;;;;;;14.65;10.10;;;;;;;;;;6219915;23;20012;-79
2022/06/11 09:07:04;;;;;;;15.60;9.02;;;;;;;;;;6245715;23;20012;-81
2022/06/11 09:09:36;;;;;;;9.73;8.02;;;;;;;;;;6218690;23;20008;-80
2022/06/11 09:12:43;;;;;;;10.18;7.55;;;;;;;;;;6193827;23;20004;-79
2022/06/11 09:15:11;;;;;;;12.90;7.95;;;;;;;;;;6187769;23;20016;-78
2022/06/11 09:17:58;;;;;;;10.93;6.90;;;;;;;;;;6218925;23;20412;-79
2022/06/11 09:20:37;;;;;;;10.90;6.93;;;;;;;;;;6194159;23;20039;-77
2022/06/11 09:23:27;;;;;;;9.85;5.88;;;;;;;;;;6199498;23;20015;-79
2022/06/11 09:26:15;;;;;;;;;;;;;;;;;;6219544;23;20482;-80
2022/06/11 09:28:41;;;;;;;6.05;5.45;;;;;;;;;;6218114;23;19957;-79
2022/06/11 09:31:19;;;;;;;6.00;5.40;;;;;;;;;;6245517;23;20024;-80
2022/06/11 09:33:56;;;;;;;8.50;5.63;;;;;;;;;;6194830;23;20000;-79
2022/06/11 09:36:33;;;;;;;6.30;5.60;;;;;;;;;;6218612;23;20054;-79
2022/06/11 09:39:37;;;;;;;6.55;5.72;;;;;;;;;;6218743;23;20386;-80
2022/06/11 09:42:33;;;;;;;6.70;5.95;;;;;;;;;;6121897;23;20005;-81
2022/06/11 09:45:27;;;;;;;6.85;5.78;;;;;;;;;;6245211;23;20043;-79
2022/06/11 09:48:15;;;;;;;6.88;5.88;;;;;;;;;;6244887;23;20446;-81
2022/06/11 09:50:46;;;;;;;7.07;5.80;;;;;;;;;;6218689;23;20414;-79
2022/06/11 09:53:27;;;;;;;6.72;6.05;;;;;;;;;;6193737;23;20005;-80
2022/06/11 09:55:55;;;;;;;7.15;6.05;;;;;;;;;;6244790;23;20000;-80
2022/06/11 09:58:29;;;;;;;9.48;5.70;;;;;;;;;;6244801;23;20075;-79
2022/06/11 10:01:03;;;;;;;8.95;6.03;;;;;;;;;;6218591;23;20033;-80
2022/06/11 10:03:36;;;;;;;8.48;6.60;;;;;;;;;;6205059;23;20004;-79
2022/06/11 10:06:13;;;;;;;9.35;6.10;;;;;;;;;;6193650;23;20000;-79
2022/06/11 10:08:55;;;;;;;7.88;6.30;;;;;;;;;;6244976;23;20000;-80
2022/06/11 10:11:25;;;;;;;6.82;6.13;;;;;;;;;;6245035;23;20339;-79
2022/06/11 10:13:58;;;;;;;8.90;6.15;;;;;;;;;;6245648;23;20376;-80
2022/06/11 10:16:35;;;;;;;7.82;6.30;;;;;;;;;;6217522;23;20090;-79
2022/06/11 10:19:24;;;;;;;9.50;6.40;;;;;;;;;;6193431;23;20015;-79
2022/06/11 10:22:00;;;;;;;8.38;6.20;;;;;;;;;;6231846;23;20004;-82
2022/06/11 10:24:25;;;;;;;8.95;6.47;;;;;;;;;;6221694;23;20335;-80
2022/06/11 10:26:53;;;;;;;7.30;6.40;;;;;;;;;;6244480;23;20003;-79
2022/06/11 10:29:29;;;;;;;8.82;6.65;;;;;;;;;;6193569;23;20004;-81
2022/06/11 10:32:01;;;;;;;8.52;6.20;;;;;;;;;;6218092;23;20087;-80
2022/06/11 10:34:28;;;;;;;8.23;6.50;;;;;;;;;;6215319;23;20008;-79
2022/06/11 10:37:01;;;;;;;10.35;6.65;;;;;;;;;;6217688;23;20028;-79
2022/06/11 10:39:34;;;;;;;7.95;6.45;;;;;;;;;;6217297;23;20342;-79
2022/06/11 10:42:05;;;;;;;10.18;6.45;;;;;;;;;;6218428;23;20004;-80
2022/06/11 10:44:38;;;;;;;8.23;6.57;;;;;;;;;;6229658;23;20012;-81
2022/06/11 10:47:17;;;;;;;6.68;5.68;;;;;;;;;;6192812;23;20004;-80
2022/06/11 10:49:44;;;;;;;7.03;5.73;;;;;;;;;;6217900;23;20011;-81
2022/06/11 10:52:29;;;;;;;7.18;5.40;;;;;;;;;;6218250;23;20004;-81
2022/06/11 10:54:54;;;;;;;9.40;5.60;;;;;;;;;;6193964;23;20019;-80
2022/06/11 10:57:25;;;;;;;9.77;5.95;;;;;;;;;;6217457;23;20415;-79
2022/06/11 11:00:04;;;;;;;6.93;5.40;;;;;;;;;;6218906;23;20004;-79
2022/06/11 11:02:38;;;;;;;11.43;5.45;;;;;;;;;;6247524;23;20011;-80
2022/06/11 11:05:08;;;;;;;7.40;5.80;;;;;;;;;;6255793;22;20036;-80
2022/06/11 11:07:52;;;;;;;8.23;5.20;;;;;;;;;;6192593;23;20483;-80
2022/06/11 11:10:36;;;;;;;6.38;4.65;;;;;;;;;;6244375;23;20004;-79
2022/06/11 11:13:07;;;;;;;6.32;4.95;;;;;;;;;;6244259;23;20510;-80
2022/06/11 11:15:38;;;;;;;8.30;5.20;;;;;;;;;;6244184;23;20020;-80
2022/06/11 11:18:19;;;;;;;10.10;5.25;;;;;;;;;;6244030;23;20426;-79
2022/06/11 11:20:45;;;;;;;8.13;5.05;;;;;;;;;;6244956;23;20068;-80
2022/06/11 11:23:20;;;;;;;7.15;5.65;;;;;;;;;;6197150;23;19988;-79
2022/06/11 11:25:50;;;;;;;8.07;5.07;;;;;;;;;;6256055;22;20064;-79
2022/06/11 11:28:30;;;;;;;7.70;4.95;;;;;;;;;;6193275;23;20367;-80
2022/06/11 11:31:08;;;;;;;;;;;;;;;;;;6194249;23;20004;-80
2022/06/11 11:33:39;;;;;;;12.13;5.43;;;;;;;;;;6192624;23;19951;-79
2022/06/11 11:36:34;;;;;;;6.50;5.22;;;;;;;;;;6217726;23;20015;-81
2022/06/11 11:39:13;;;;;;;7.00;4.95;;;;;;;;;;6212032;23;20008;-81
2022/06/11 11:42:03;;;;;;;5.97;5.30;;;;;;;;;;6220157;23;20000;-81
2022/06/11 11:44:28;;;;;;;6.63;5.43;;;;;;;;;;6257541;23;20060;-80
2022/06/11 11:46:55;;;;;;;11.75;5.57;;;;;;;;;;6194812;23;20347;-81
2022/06/11 11:49:27;;;;;;;10.32;5.38;;;;;;;;;;6217724;23;20007;-81
2022/06/11 11:51:52;;;;;;;6.70;5.82;;;;;;;;;;6192857;23;20053;-80
2022/06/11 11:54:21;;;;;;;7.18;5.47;;;;;;;;;;6244475;23;20028;-81
2022/06/11 11:56:54;;;;;;;6.60;5.57;;;;;;;;;;6218279;23;19996;-80
2022/06/11 12:00:06;;;;;;;13.13;6.93;;;;;;;;;;6217593;23;20035;-80
2022/06/11 12:02:41;;;;;;;6.47;4.78;;;;;;;;;;6092890;23;20007;-80
2022/06/11 12:05:24;;;;;;;8.25;5.63;;;;;;;;;;6229683;23;20015;-80
2022/06/11 12:07:49;;;;;;;6.50;5.22;;;;;;;;;;6216772;23;20064;-80
2022/06/11 12:10:22;;;;;;;8.32;5.63;;;;;;;;;;6217153;23;20009;-79
2022/06/11 12:12:53;;;;;;;8.43;5.40;;;;;;;;;;6218193;23;20004;-80
2022/06/11 12:15:21;;;;;;;6.93;5.40;;;;;;;;;;6255797;23;20012;-80
2022/06/11 12:17:56;;;;;;;9.57;5.70;;;;;;;;;;6244840;23;20000;-80
2022/06/11 12:20:27;;;;;;;7.32;5.50;;;;;;;;;;6217403;23;20007;-80
2022/06/11 12:23:03;;;;;;;9.48;5.35;;;;;;;;;;6244265;23;20067;-79
2022/06/11 12:26:07;;;;;;;9.20;5.75;;;;;;;;;;6212633;23;20056;-80
2022/06/11 12:28:59;;;;;;;7.50;6.07;;;;;;;;;;6143306;23;20008;-79
2022/06/11 12:31:27;;;;;;;7.60;5.72;;;;;;;;;;6186265;23;20095;-80
2022/06/11 12:33:52;;;;;;;6.57;5.43;;;;;;;;;;6221061;23;20003;-81
2022/06/11 12:36:40;;;;;;;6.60;4.72;;;;;;;;;;6245341;23;20004;-80
2022/06/11 12:39:28;;;;;;;7.18;4.93;;;;;;;;;;6244722;23;20008;-80
2022/06/11 12:42:32;;;;;;;7.00;5.15;;;;;;;;;;6246078;23;20015;-80
2022/06/11 12:45:35;;;;;;;6.43;4.75;;;;;;;;;;6099788;23;20010;-80
2022/06/11 12:48:11;;;;;;;10.07;4.88;;;;;;;;;;6094568;23;20018;-80
2022/06/11 12:51:06;;;;;;;5.45;4.70;;;;;;;;;;6189463;23;20011;-80
2022/06/11 12:53:53;;;;;;;8.70;4.80;;;;;;;;;;6213311;23;20386;-79
2022/06/11 12:56:28;;;;;;;8.38;5.38;;;;;;;;;;6246202;23;20344;-80
2022/06/11 12:59:30;;;;;;;8.40;5.68;;;;;;;;;;6245884;23;20305;-80
2022/06/11 13:02:23;;;;;;;6.95;5.50;;;;;;;;;;6223420;23;20000;-80
2022/06/11 13:05:23;;;;;;;9.27;5.63;;;;;;;;;;6226052;23;20046;-81
2022/06/11 13:08:12;;;;;;;5.88;5.00;;;;;;;;;;6242936;22;20088;-79
2022/06/11 13:10:47;;;;;;;8.45;5.20;;;;;;;;;;6245085;23;20444;-81
2022/06/11 13:13:48;;;;;;;8.32;5.20;;;;;;;;;;6245769;23;20095;-79
2022/06/11 13:16:32;;;;;;;6.60;5.80;;;;;;;;;;6218730;23;20348;-81
2022/06/11 13:19:13;;;;;;;6.35;5.20;;;;;;;;;;6218461;23;20086;-81
2022/06/11 13:21:59;;;;;;;6.30;5.40;;;;;;;;;;6244834;23;20495;-79
2022/06/11 13:24:52;;;;;;;7.72;5.47;;;;;;;;;;6247684;23;20023;-79
2022/06/11 13:27:44;;;;;;;9.55;5.72;;;;;;;;;;6228924;23;20103;-82
2022/06/11 13:30:22;;;;;;;5.75;5.15;;;;;;;;;;6196803;23;20040;-80
2022/06/11 13:33:10;;;;;;;5.97;5.38;;;;;;;;;;6245351;23;20000;-80
2022/06/11 13:35:47;;;;;;;5.55;4.80;;;;;;;;;;6174792;23;20004;-81
2022/06/11 13:38:35;;;;;;;6.25;4.65;;;;;;;;;;6245352;23;20007;-82
2022/06/11 13:41:06;;;;;;;6.35;4.65;;;;;;;;;;6245171;23;20004;-80
2022/06/11 13:43:35;;;;;;;6.85;5.05;;;;;;;;;;6218940;23;20423;-80
2022/06/11 13:46:19;;;;;;;5.50;4.82;;;;;;;;;;6231976;23;20093;-80
2022/06/11 13:48:47;;;;;;;5.68;4.72;;;;;;;;;;6246099;23;20032;-80
2022/06/11 13:51:24;;;;;;;6.10;5.07;;;;;;;;;;6244754;23;20004;-81
2022/06/11 13:57:32;;;;;;;6.38;5.28;;;;;;;;;;6073221;23;20046;-81
2022/06/11 14:00:19;;;;;;;10.27;5.55;;;;;;;;;;6244808;23;20057;-81
2022/06/11 14:03:00;;;;;;;7.05;6.25;;;;;;;;;;6245089;23;20000;-80
2022/06/11 14:05:45;;;;;;;7.47;5.88;;;;;;;;;;6221943;23;20004;-80
2022/06/11 14:08:11;;;;;;;10.50;6.65;;;;;;;;;;6252203;23;20312;-80
2022/06/11 14:10:41;;;;;;;7.82;6.30;;;;;;;;;;6193587;23;20074;-80
2022/06/11 14:13:08;;;;;;;14.48;6.88;;;;;;;;;;6218286;23;20063;-80
2022/06/11 14:15:38;;;;;;;8.30;6.90;;;;;;;;;;6193263;23;20501;-81
2022/06/11 14:18:06;;;;;;;;;;;;;;;;;;6219579;23;20007;-80
2022/06/11 14:20:31;;;;;;;12.40;7.22;;;;;;;;;;6245763;23;19907;-80
2022/06/11 14:22:58;;;;;;;9.45;7.30;;;;;;;;;;6245143;23;20014;-79
2022/06/11 14:25:36;;;;;;;9.18;7.82;;;;;;;;;;6218024;23;19997;-80
2022/06/11 14:28:13;;;;;;;10.50;7.60;;;;;;;;;;6245237;23;20001;-80
2022/06/11 14:30:40;;;;;;;9.80;7.90;;;;;;;;;;6245221;23;20071;-80
2022/06/11 14:33:11;;;;;;;10.25;7.80;;;;;;;;;;6228194;23;20043;-80
2022/06/11 14:35:51;;;;;;;10.65;8.25;;;;;;;;;;6244687;23;20007;-80
2022/06/11 14:38:32;;;;;;;9.93;7.68;;;;;;;;;;6220801;23;20084;-80
2022/06/11 14:41:09;;;;;;;10.18;7.53;;;;;;;;;;6244926;23;20125;-81
2022/06/11 14:43:53;;;;;;;9.23;7.30;;;;;;;;;;6244682;23;20083;-80
2022/06/11 14:49:20;;;;;;;8.38;7.03;;;;;;;;;;6248249;22;20355;-80
2022/06/11 14:52:04;;;;;;;9.75;6.60;;;;;;;;;;6245378;23;20002;-80
2022/06/11 14:54:48;;;;;;;7.93;6.57;;;;;;;;;;6244073;23;20008;-79
2022/06/11 14:57:34;;;;;;;7.63;6.53;;;;;;;;;;6218339;23;20359;-79
2022/06/11 15:00:33;;;;;;;8.18;5.53;;;;;;;;;;6218087;23;20023;-79
2022/06/11 15:03:27;;;;;;;8.68;5.68;;;;;;;;;;6244553;23;20004;-80
2022/06/11 15:06:29;;;;;;;9.07;6.07;;;;;;;;;;6219280;23;20439;-80
2022/06/11 15:09:00;;;;;;;11.35;6.05;;;;;;;;;;6253480;23;20340;-80
2022/06/11 15:11:35;;;;;;;10.25;5.60;;;;;;;;;;6193482;23;20419;-80
2022/06/11 15:14:25;;;;;;;6.18;5.55;;;;;;;;;;6244151;23;20011;-79
2022/06/11 15:16:50;;;;;;;;;;;;;;;;;;6244553;23;20003;-79